Time;durP1;ratioP1;P1;durP2;ratioP2;P2;SDS_P1;SDS_P2;PMS_P1;PMS_P2;Temp;Humidity;BMP_temperature;BMP_pressure;BME280_temperature;BME280_humidity;BME280_pressure;Samples;Min_cycle;Max_cycle;Signal;HPM_P1;HPM_P2
2024/01/16 00:00:59;;;;;;;86.22;48.58;;;;;;;;;;5027261;28;20021;-49
2024/01/16 00:03:26;;;;;;;80.28;48.38;;;;;;;;;;5031825;28;20025;-48
2024/01/16 00:05:52;;;;;;;80.07;51.10;;;;;;;;;;5017389;28;20034;-47
2024/01/16 00:08:18;;;;;;;73.13;47.67;;;;;;;;;;4995757;28;20156;-48
2024/01/16 00:10:44;;;;;;;70.00;44.07;;;;;;;;;;5013391;28;20454;-49
2024/01/16 00:13:10;;;;;;;70.80;44.20;;;;;;;;;;4998020;28;20029;-50
2024/01/16 00:15:36;;;;;;;73.00;43.78;;;;;;;;;;5024154;28;20029;-51
2024/01/16 00:18:03;;;;;;;80.28;45.30;;;;;;;;;;5019873;28;20031;-49
2024/01/16 00:20:29;;;;;;;76.63;44.97;;;;;;;;;;5032237;28;20068;-50
2024/01/16 00:22:55;;;;;;;69.78;42.97;;;;;;;;;;5031254;28;20026;-51
2024/01/16 00:25:22;;;;;;;68.18;43.20;;;;;;;;;;5023008;28;20424;-49
2024/01/16 00:27:49;;;;;;;67.30;43.85;;;;;;;;;;5030548;28;20033;-48
2024/01/16 00:30:15;;;;;;;73.60;45.70;;;;;;;;;;5028440;28;20022;-49
2024/01/16 00:32:41;;;;;;;117.97;49.97;;;;;;;;;;5031074;28;20120;-48
2024/01/16 00:35:08;;;;;;;149.80;53.53;;;;;;;;;;5030918;28;20037;-51
2024/01/16 00:37:34;;;;;;;;;;;;;;;;;;5021607;28;20014;-49
2024/01/16 00:40:01;;;;;;;259.20;59.88;;;;;;;;;;5011443;28;19924;-48
2024/01/16 00:42:27;;;;;;;158.65;53.38;;;;;;;;;;5011343;28;20117;-47
2024/01/16 00:44:53;;;;;;;207.77;59.60;;;;;;;;;;5012920;28;20553;-50
2024/01/16 00:47:19;;;;;;;99.40;52.22;;;;;;;;;;5022680;28;20395;-47
2024/01/16 00:49:45;;;;;;;151.17;53.77;;;;;;;;;;5032316;28;20510;-48
2024/01/16 00:52:11;;;;;;;257.48;60.20;;;;;;;;;;5030827;28;20072;-48
2024/01/16 00:54:38;;;;;;;195.60;57.50;;;;;;;;;;5031839;28;20026;-47
2024/01/16 00:57:05;;;;;;;167.65;56.90;;;;;;;;;;5013301;28;20030;-47
2024/01/16 00:59:31;;;;;;;218.32;59.15;;;;;;;;;;5024211;28;20030;-47
2024/01/16 01:01:58;;;;;;;303.13;69.20;;;;;;;;;;5017932;28;20052;-48
2024/01/16 01:04:24;;;;;;;151.32;55.78;;;;;;;;;;5012385;28;20037;-47
2024/01/16 01:06:50;;;;;;;161.20;56.00;;;;;;;;;;5020057;28;20563;-51
2024/01/16 01:09:17;;;;;;;281.77;76.38;;;;;;;;;;5012184;28;20029;-49
2024/01/16 01:11:43;;;;;;;231.63;60.75;;;;;;;;;;5013037;28;20033;-47
2024/01/16 01:14:09;;;;;;;318.42;78.80;;;;;;;;;;5026076;28;20558;-47
2024/01/16 01:16:36;;;;;;;306.65;82.20;;;;;;;;;;5019200;28;20026;-47
2024/01/16 01:19:03;;;;;;;132.90;57.90;;;;;;;;;;5013203;28;20048;-46
2024/01/16 01:21:29;;;;;;;127.88;59.22;;;;;;;;;;5030401;28;20112;-47
2024/01/16 01:23:55;;;;;;;230.52;74.03;;;;;;;;;;5018461;28;20036;-50
2024/01/16 01:26:21;;;;;;;181.65;65.88;;;;;;;;;;5031033;28;20053;-49
2024/01/16 01:28:47;;;;;;;205.77;68.50;;;;;;;;;;5025918;28;20025;-47
2024/01/16 01:31:14;;;;;;;305.35;79.88;;;;;;;;;;4994434;28;20030;-48
2024/01/16 01:33:40;;;;;;;161.10;58.40;;;;;;;;;;5019065;28;20433;-47
2024/01/16 01:36:06;;;;;;;243.30;79.32;;;;;;;;;;5030101;28;20105;-47
2024/01/16 01:38:33;;;;;;;108.33;58.27;;;;;;;;;;5027415;28;20022;-51
2024/01/16 01:40:59;;;;;;;198.83;74.37;;;;;;;;;;5011541;28;20034;-49
2024/01/16 01:43:25;;;;;;;102.57;57.70;;;;;;;;;;5015405;28;20547;-47
2024/01/16 01:46:00;;;;;;;99.80;58.65;;;;;;;;;;5028302;28;20048;-47
2024/01/16 01:48:26;;;;;;;102.30;58.50;;;;;;;;;;5029917;28;20483;-47
2024/01/16 01:50:52;;;;;;;101.47;61.17;;;;;;;;;;5013534;28;20080;-46
2024/01/16 01:53:19;;;;;;;105.10;62.40;;;;;;;;;;5028090;28;20041;-48
2024/01/16 01:55:45;;;;;;;80.25;47.10;;;;;;;;;;5030968;28;20264;-47
2024/01/16 01:58:11;;;;;;;100.20;57.50;;;;;;;;;;5015302;28;20041;-50
2024/01/16 02:00:38;;;;;;;104.43;62.47;;;;;;;;;;5014476;28;20029;-49
2024/01/16 02:03:04;;;;;;;106.95;61.67;;;;;;;;;;5020272;28;20108;-47
2024/01/16 02:05:31;;;;;;;97.30;58.03;;;;;;;;;;5031314;28;20087;-47
2024/01/16 02:07:57;;;;;;;93.47;56.50;;;;;;;;;;5019163;28;20125;-47
2024/01/16 02:10:24;;;;;;;102.23;58.47;;;;;;;;;;5011572;28;20050;-50
2024/01/16 02:12:50;;;;;;;90.93;56.35;;;;;;;;;;5011707;28;20066;-47
2024/01/16 02:15:16;;;;;;;101.93;60.53;;;;;;;;;;5010542;28;20472;-49
2024/01/16 02:17:43;;;;;;;91.38;57.22;;;;;;;;;;5011657;28;20022;-48
2024/01/16 02:20:09;;;;;;;117.00;66.13;;;;;;;;;;5022280;28;20080;-47
2024/01/16 02:22:36;;;;;;;108.88;66.03;;;;;;;;;;5031218;28;20560;-49
2024/01/16 02:25:02;;;;;;;108.72;61.47;;;;;;;;;;5031299;28;20448;-47
2024/01/16 02:27:29;;;;;;;121.37;67.10;;;;;;;;;;5031341;28;20479;-46
2024/01/16 02:29:55;;;;;;;108.93;66.30;;;;;;;;;;5031123;28;20458;-48
2024/01/16 02:32:21;;;;;;;102.07;60.42;;;;;;;;;;5031089;28;20493;-48
2024/01/16 02:34:47;;;;;;;152.57;83.55;;;;;;;;;;5029638;28;20022;-48
2024/01/16 02:37:13;;;;;;;207.47;86.97;;;;;;;;;;5031032;28;20087;-48
2024/01/16 02:39:40;;;;;;;161.23;79.00;;;;;;;;;;5029600;28;20301;-47
2024/01/16 02:42:06;;;;;;;134.15;67.78;;;;;;;;;;5031145;28;20152;-47
2024/01/16 02:44:32;;;;;;;203.18;73.82;;;;;;;;;;5031109;28;20082;-48
2024/01/16 02:46:58;;;;;;;197.45;72.13;;;;;;;;;;5033412;28;20029;-47
2024/01/16 02:49:25;;;;;;;217.07;76.53;;;;;;;;;;5033230;28;20033;-48
2024/01/16 02:51:52;;;;;;;312.52;110.40;;;;;;;;;;5034375;28;20025;-47
2024/01/16 02:54:18;;;;;;;172.27;73.60;;;;;;;;;;5033099;28;20033;-48
2024/01/16 02:56:44;;;;;;;171.60;76.73;;;;;;;;;;5021824;28;20388;-48
2024/01/16 02:59:11;;;;;;;122.65;65.85;;;;;;;;;;4996972;28;20492;-48
2024/01/16 03:01:37;;;;;;;149.77;70.60;;;;;;;;;;5013372;28;20109;-48
2024/01/16 03:04:03;;;;;;;139.67;68.53;;;;;;;;;;5015891;28;20112;-48
2024/01/16 03:06:29;;;;;;;113.00;62.60;;;;;;;;;;5008436;28;20113;-47
2024/01/16 03:08:56;;;;;;;128.55;63.45;;;;;;;;;;5014318;28;20030;-48
2024/01/16 03:11:22;;;;;;;363.20;81.03;;;;;;;;;;5029195;28;20048;-49
2024/01/16 03:13:49;;;;;;;260.27;72.67;;;;;;;;;;5034077;28;20434;-49
2024/01/16 03:16:15;;;;;;;326.98;72.28;;;;;;;;;;5034229;28;20022;-48
2024/01/16 03:18:42;;;;;;;409.20;84.43;;;;;;;;;;5033960;28;20029;-48
2024/01/16 03:21:08;;;;;;;445.73;93.80;;;;;;;;;;5033939;28;20029;-47
2024/01/16 03:23:34;;;;;;;234.20;69.20;;;;;;;;;;5018757;28;20035;-47
2024/01/16 03:26:00;;;;;;;247.07;65.93;;;;;;;;;;5012883;28;20060;-47
2024/01/16 03:28:27;;;;;;;195.37;61.90;;;;;;;;;;5014084;28;20439;-50
2024/01/16 03:30:53;;;;;;;318.63;71.10;;;;;;;;;;5014031;28;20433;-50
2024/01/16 03:33:20;;;;;;;423.50;86.22;;;;;;;;;;5013849;28;20022;-47
2024/01/16 03:35:47;;;;;;;196.45;63.78;;;;;;;;;;5012817;28;20032;-47
2024/01/16 03:38:13;;;;;;;;;;;;;;;;;;5013075;28;20026;-49
2024/01/16 03:40:39;;;;;;;398.33;77.43;;;;;;;;;;5012415;28;20000;-50
2024/01/16 03:43:05;;;;;;;402.60;82.10;;;;;;;;;;5013863;28;20030;-48
2024/01/16 03:45:32;;;;;;;470.33;100.65;;;;;;;;;;5013669;28;20088;-48
2024/01/16 03:47:59;;;;;;;458.45;107.40;;;;;;;;;;5013588;28;20108;-47
2024/01/16 03:50:25;;;;;;;262.58;60.22;;;;;;;;;;5013863;28;20034;-46
2024/01/16 03:52:51;;;;;;;317.17;68.28;;;;;;;;;;5018685;28;20064;-52
2024/01/16 03:55:18;;;;;;;358.15;79.53;;;;;;;;;;5021218;28;20076;-47
2024/01/16 03:57:44;;;;;;;329.53;76.33;;;;;;;;;;5031576;28;20060;-47
2024/01/16 04:00:15;;;;;;;218.88;64.45;;;;;;;;;;5030845;28;20302;-50
2024/01/16 04:02:41;;;;;;;307.90;80.15;;;;;;;;;;5030629;28;20033;-47
2024/01/16 04:05:08;;;;;;;278.90;80.40;;;;;;;;;;4996482;28;20041;-51
2024/01/16 04:07:34;;;;;;;131.77;54.40;;;;;;;;;;5013372;28;20056;-48
2024/01/16 04:10:01;;;;;;;216.05;61.75;;;;;;;;;;5026078;28;20044;-48
2024/01/16 04:12:27;;;;;;;316.85;75.30;;;;;;;;;;5024882;28;20079;-48
2024/01/16 04:14:53;;;;;;;121.97;55.13;;;;;;;;;;5016611;28;20049;-47
2024/01/16 04:17:20;;;;;;;241.70;68.60;;;;;;;;;;5027334;28;20046;-50
2024/01/16 04:19:46;;;;;;;176.02;59.88;;;;;;;;;;5031694;28;20021;-48
2024/01/16 04:22:12;;;;;;;266.30;73.27;;;;;;;;;;5031649;28;20060;-49
2024/01/16 04:24:38;;;;;;;199.32;62.65;;;;;;;;;;5032774;28;20018;-47
2024/01/16 04:27:05;;;;;;;359.47;83.70;;;;;;;;;;5029923;28;20029;-48
2024/01/16 04:29:31;;;;;;;216.30;68.27;;;;;;;;;;5032578;28;20503;-47
2024/01/16 04:31:57;;;;;;;224.40;62.63;;;;;;;;;;5015768;28;20037;-49
2024/01/16 04:34:24;;;;;;;318.90;75.05;;;;;;;;;;5012901;28;20485;-48
2024/01/16 04:36:50;;;;;;;359.50;79.60;;;;;;;;;;5012824;28;20412;-50
2024/01/16 04:41:42;;;;;;;256.13;73.73;;;;;;;;;;5020071;28;20090;-50
2024/01/16 04:44:09;;;;;;;450.07;92.53;;;;;;;;;;5048076;28;20367;-47
2024/01/16 04:46:35;;;;;;;439.85;97.82;;;;;;;;;;5040184;28;20550;-45
2024/01/16 04:49:01;;;;;;;425.45;100.35;;;;;;;;;;5032832;28;20108;-49
2024/01/16 04:51:28;;;;;;;353.48;81.53;;;;;;;;;;5015842;28;20072;-49
2024/01/16 04:53:54;;;;;;;239.52;69.65;;;;;;;;;;5031998;28;20021;-48
2024/01/16 04:56:21;;;;;;;431.95;97.20;;;;;;;;;;5015898;28;20499;-47
2024/01/16 04:58:47;;;;;;;229.20;68.85;;;;;;;;;;5041962;28;20368;-47
2024/01/16 05:01:13;;;;;;;245.43;64.25;;;;;;;;;;5051718;28;20021;-47
2024/01/16 05:03:40;;;;;;;166.68;61.75;;;;;;;;;;5051853;28;20029;-47
2024/01/16 05:06:12;;;;;;;131.88;58.03;;;;;;;;;;5034088;28;20127;-47
2024/01/16 05:08:38;;;;;;;110.78;51.83;;;;;;;;;;5051821;28;20033;-52
2024/01/16 05:11:04;;;;;;;96.93;49.05;;;;;;;;;;5017554;28;20056;-49
2024/01/16 05:13:31;;;;;;;97.17;52.10;;;;;;;;;;5051573;28;20033;-47
2024/01/16 05:15:57;;;;;;;90.18;51.72;;;;;;;;;;5051813;28;20403;-47
2024/01/16 05:18:23;;;;;;;90.80;53.50;;;;;;;;;;5034163;28;20028;-50
2024/01/16 05:20:49;;;;;;;94.65;51.65;;;;;;;;;;5051652;28;20025;-48
2024/01/16 05:23:15;;;;;;;112.03;55.25;;;;;;;;;;5051769;28;20079;-48
2024/01/16 05:25:41;;;;;;;192.53;58.97;;;;;;;;;;5051421;28;20495;-52
2024/01/16 05:28:08;;;;;;;132.00;57.63;;;;;;;;;;5051656;28;20551;-52
2024/01/16 05:30:34;;;;;;;127.50;53.43;;;;;;;;;;5051871;28;20020;-51
2024/01/16 05:33:00;;;;;;;108.55;52.78;;;;;;;;;;5051685;28;20123;-47
2024/01/16 05:35:28;;;;;;;96.68;52.22;;;;;;;;;;5051401;28;20441;-47
2024/01/16 05:37:54;;;;;;;;;;;;;;;;;;5052136;28;20025;-52
2024/01/16 05:40:21;;;;;;;98.57;48.03;;;;;;;;;;5051508;28;20052;-49
2024/01/16 05:42:48;;;;;;;86.00;50.42;;;;;;;;;;5051647;28;20033;-49
2024/01/16 05:45:14;;;;;;;90.47;51.00;;;;;;;;;;5051427;28;20108;-47
2024/01/16 05:47:41;;;;;;;82.60;50.77;;;;;;;;;;5051584;28;20112;-49
2024/01/16 05:50:07;;;;;;;92.80;49.47;;;;;;;;;;5050128;28;20511;-49
2024/01/16 05:52:33;;;;;;;112.22;54.35;;;;;;;;;;5050117;28;20275;-48
2024/01/16 05:54:59;;;;;;;100.05;50.15;;;;;;;;;;5051084;28;20032;-51
2024/01/16 05:57:26;;;;;;;81.53;49.87;;;;;;;;;;5051363;28;20040;-51
2024/01/16 05:59:52;;;;;;;91.97;49.42;;;;;;;;;;5051338;28;20029;-52
2024/01/16 06:02:18;;;;;;;85.73;48.90;;;;;;;;;;5051411;28;20029;-48
2024/01/16 06:04:46;;;;;;;89.07;52.67;;;;;;;;;;5051235;28;20059;-50
2024/01/16 06:07:12;;;;;;;85.80;52.28;;;;;;;;;;5050112;28;20052;-47
2024/01/16 06:09:42;;;;;;;93.30;53.72;;;;;;;;;;5049745;28;20021;-47
2024/01/16 06:12:08;;;;;;;84.53;50.63;;;;;;;;;;5051190;28;20029;-50
2024/01/16 06:14:34;;;;;;;98.50;54.10;;;;;;;;;;5051031;28;20033;-51
2024/01/16 06:17:03;;;;;;;86.80;51.92;;;;;;;;;;5051295;28;20025;-50
2024/01/16 06:19:29;;;;;;;82.63;50.60;;;;;;;;;;5051165;28;20074;-46
2024/01/16 06:21:55;;;;;;;81.57;49.43;;;;;;;;;;5055120;28;20017;-48
2024/01/16 06:24:21;;;;;;;84.23;49.90;;;;;;;;;;5053696;28;20040;-47
2024/01/16 06:26:47;;;;;;;82.67;50.60;;;;;;;;;;5055089;28;20029;-49
2024/01/16 06:29:14;;;;;;;82.72;49.83;;;;;;;;;;5054973;28;20459;-47
2024/01/16 06:31:40;;;;;;;81.43;51.72;;;;;;;;;;5053863;28;20087;-49
2024/01/16 06:34:06;;;;;;;82.17;48.67;;;;;;;;;;5053441;28;20111;-51
2024/01/16 06:36:32;;;;;;;79.22;49.95;;;;;;;;;;5054748;28;20032;-50
2024/01/16 06:38:58;;;;;;;79.03;48.80;;;;;;;;;;5054785;28;20110;-52
2024/01/16 06:41:25;;;;;;;94.17;51.70;;;;;;;;;;5054693;28;20090;-49
2024/01/16 06:43:51;;;;;;;81.40;50.83;;;;;;;;;;5054585;28;20028;-49
2024/01/16 06:46:17;;;;;;;78.17;48.73;;;;;;;;;;5053427;28;20029;-47
2024/01/16 06:48:43;;;;;;;77.72;49.67;;;;;;;;;;5053518;28;20025;-49
2024/01/16 06:51:13;;;;;;;76.80;45.47;;;;;;;;;;5054445;28;20032;-50
2024/01/16 06:53:39;;;;;;;69.43;45.67;;;;;;;;;;5037103;28;20116;-50
2024/01/16 06:56:09;;;;;;;79.80;46.70;;;;;;;;;;5054479;28;20067;-48
2024/01/16 06:58:35;;;;;;;79.60;48.67;;;;;;;;;;5054767;28;20096;-46
2024/01/16 07:01:02;;;;;;;70.65;44.38;;;;;;;;;;5053136;28;20021;-50
2024/01/16 07:03:28;;;;;;;75.03;46.88;;;;;;;;;;5054289;28;20043;-48
2024/01/16 07:05:54;;;;;;;75.10;47.33;;;;;;;;;;5054345;28;20437;-47
2024/01/16 07:08:21;;;;;;;83.23;51.37;;;;;;;;;;5054369;28;20037;-47
2024/01/16 07:10:47;;;;;;;83.85;50.60;;;;;;;;;;5054341;28;20407;-47
2024/01/16 07:13:14;;;;;;;94.87;56.50;;;;;;;;;;5054350;28;20108;-47
2024/01/16 07:15:40;;;;;;;;;;;;;;;;;;5054374;28;20025;-47
2024/01/16 07:18:06;;;;;;;78.47;49.03;;;;;;;;;;5053998;28;19912;-49
2024/01/16 07:20:32;;;;;;;79.03;49.40;;;;;;;;;;5052450;28;20074;-47
2024/01/16 07:22:59;;;;;;;80.33;52.30;;;;;;;;;;5054040;28;20036;-46
2024/01/16 07:25:25;;;;;;;77.95;47.95;;;;;;;;;;5052603;28;20033;-47
2024/01/16 07:27:51;;;;;;;84.83;49.00;;;;;;;;;;5053931;28;20033;-50
2024/01/16 07:30:17;;;;;;;74.95;47.42;;;;;;;;;;5053374;28;20306;-48
2024/01/16 07:32:43;;;;;;;76.80;46.83;;;;;;;;;;5053072;28;20043;-48
2024/01/16 07:35:09;;;;;;;75.43;47.93;;;;;;;;;;5052207;28;20025;-49
2024/01/16 07:37:36;;;;;;;72.70;47.50;;;;;;;;;;5052561;28;20040;-47
2024/01/16 07:40:02;;;;;;;77.78;47.08;;;;;;;;;;5053487;28;20432;-47
2024/01/16 07:42:33;;;;;;;87.43;52.43;;;;;;;;;;5053579;28;20065;-49
2024/01/16 07:45:04;;;;;;;76.60;48.08;;;;;;;;;;5053380;28;20039;-47
2024/01/16 07:47:31;;;;;;;72.57;44.20;;;;;;;;;;5053359;28;20036;-48
2024/01/16 07:49:57;;;;;;;73.15;44.45;;;;;;;;;;5053434;28;20056;-47
2024/01/16 07:52:24;;;;;;;84.13;47.72;;;;;;;;;;5053424;28;20074;-48
2024/01/16 07:54:50;;;;;;;72.70;46.47;;;;;;;;;;5053190;28;20108;-46
2024/01/16 07:57:16;;;;;;;76.90;46.33;;;;;;;;;;5052030;28;20498;-47
2024/01/16 07:59:42;;;;;;;71.00;44.83;;;;;;;;;;5053258;28;20032;-47
2024/01/16 08:02:09;;;;;;;68.23;45.03;;;;;;;;;;5053120;28;20020;-46
2024/01/16 08:04:35;;;;;;;72.22;49.47;;;;;;;;;;5051751;28;20445;-49
2024/01/16 08:07:02;;;;;;;78.82;50.25;;;;;;;;;;5051802;28;20074;-48
2024/01/16 08:09:28;;;;;;;79.80;47.70;;;;;;;;;;5053050;28;20121;-49
2024/01/16 08:11:54;;;;;;;82.83;52.47;;;;;;;;;;5051788;28;20621;-47
2024/01/16 08:14:20;;;;;;;109.97;75.55;;;;;;;;;;5051612;28;20321;-51
2024/01/16 08:16:47;;;;;;;125.95;90.45;;;;;;;;;;5052773;28;20103;-48
2024/01/16 08:19:14;;;;;;;101.63;68.05;;;;;;;;;;5053396;28;20436;-47
2024/01/16 08:21:40;;;;;;;88.05;60.95;;;;;;;;;;5052866;28;20052;-46
2024/01/16 08:24:07;;;;;;;89.27;57.30;;;;;;;;;;5051430;28;20037;-48
2024/01/16 08:26:33;;;;;;;87.75;54.35;;;;;;;;;;5052884;28;20032;-48
2024/01/16 08:28:59;;;;;;;95.43;57.47;;;;;;;;;;5052786;28;20090;-48
2024/01/16 08:31:25;;;;;;;100.80;60.25;;;;;;;;;;5052517;28;20082;-47
2024/01/16 08:33:55;;;;;;;97.53;54.95;;;;;;;;;;5052426;28;20530;-47
2024/01/16 08:36:21;;;;;;;92.10;55.50;;;;;;;;;;5052706;28;20021;-47
2024/01/16 08:38:47;;;;;;;89.90;54.30;;;;;;;;;;5052658;28;20433;-47
2024/01/16 08:41:14;;;;;;;98.18;56.33;;;;;;;;;;5052405;28;20029;-47
2024/01/16 08:43:40;;;;;;;91.15;56.00;;;;;;;;;;5051751;28;20035;-46
2024/01/16 08:46:06;;;;;;;72.85;43.53;;;;;;;;;;5051078;28;20025;-47
2024/01/16 08:48:33;;;;;;;93.05;55.30;;;;;;;;;;5052387;28;20041;-48
2024/01/16 08:50:59;;;;;;;88.15;54.63;;;;;;;;;;5051177;28;20386;-47
2024/01/16 08:53:25;;;;;;;87.27;55.47;;;;;;;;;;5052062;28;20036;-47
2024/01/16 08:55:52;;;;;;;98.95;55.53;;;;;;;;;;5052296;28;20025;-47
2024/01/16 08:58:18;;;;;;;96.73;57.67;;;;;;;;;;5051966;28;20115;-48
2024/01/16 09:00:44;;;;;;;91.03;56.58;;;;;;;;;;5052074;28;20029;-47
2024/01/16 09:03:10;;;;;;;91.97;55.40;;;;;;;;;;5052152;28;20029;-47
2024/01/16 09:05:38;;;;;;;87.15;55.30;;;;;;;;;;5051926;28;20143;-47
2024/01/16 09:08:04;;;;;;;92.22;54.75;;;;;;;;;;5051984;28;20051;-47
2024/01/16 09:10:31;;;;;;;100.33;56.63;;;;;;;;;;5051902;28;20289;-47
2024/01/16 09:12:57;;;;;;;92.07;56.17;;;;;;;;;;5051636;28;20368;-48
2024/01/16 09:15:23;;;;;;;109.85;62.35;;;;;;;;;;5051743;28;20490;-47
2024/01/16 09:17:49;;;;;;;99.35;60.92;;;;;;;;;;5052067;28;20063;-48
2024/01/16 09:20:17;;;;;;;91.43;56.42;;;;;;;;;;5050483;28;20068;-47
2024/01/16 09:22:43;;;;;;;;;;;;;;;;;;5052196;28;20115;-47
2024/01/16 09:25:09;;;;;;;89.93;54.25;;;;;;;;;;5051540;28;19909;-50
2024/01/16 09:27:35;;;;;;;98.70;58.35;;;;;;;;;;5051737;28;20236;-47
2024/01/16 09:30:01;;;;;;;88.05;54.30;;;;;;;;;;5051795;28;20482;-50
2024/01/16 09:32:28;;;;;;;99.95;58.97;;;;;;;;;;5050395;28;20032;-47
2024/01/16 09:34:54;;;;;;;100.03;60.93;;;;;;;;;;5051597;28;20031;-47
2024/01/16 09:37:20;;;;;;;97.90;60.03;;;;;;;;;;5050383;28;20462;-48
2024/01/16 09:39:46;;;;;;;90.75;57.17;;;;;;;;;;5051229;28;20052;-47
2024/01/16 09:42:13;;;;;;;101.70;59.63;;;;;;;;;;5050820;28;20395;-48
2024/01/16 09:44:39;;;;;;;95.10;61.33;;;;;;;;;;5050444;28;20028;-46
2024/01/16 09:47:05;;;;;;;103.22;60.58;;;;;;;;;;5050775;28;20075;-50
2024/01/16 09:49:31;;;;;;;89.23;55.80;;;;;;;;;;5050756;28;20060;-47
2024/01/16 09:52:01;;;;;;;98.25;58.00;;;;;;;;;;5050569;28;20267;-50
2024/01/16 09:54:28;;;;;;;100.22;58.70;;;;;;;;;;5051586;28;20107;-48
2024/01/16 09:56:54;;;;;;;100.63;61.53;;;;;;;;;;5054169;28;20035;-50
2024/01/16 09:59:21;;;;;;;91.72;56.00;;;;;;;;;;5054312;28;20372;-52
2024/01/16 10:01:49;;;;;;;91.80;55.13;;;;;;;;;;5053067;28;20024;-52
2024/01/16 10:04:16;;;;;;;120.30;60.65;;;;;;;;;;5053919;28;20030;-51
2024/01/16 10:06:46;;;;;;;92.00;55.90;;;;;;;;;;5052910;28;20063;-52
2024/01/16 10:09:13;;;;;;;91.03;54.95;;;;;;;;;;5053883;28;20064;-47
2024/01/16 10:11:39;;;;;;;88.93;54.90;;;;;;;;;;5052829;28;20029;-47
2024/01/16 10:14:06;;;;;;;93.07;54.75;;;;;;;;;;5052518;28;20287;-50
2024/01/16 10:16:51;;;;;;;92.40;55.53;;;;;;;;;;5053956;28;20506;-48
2024/01/16 10:19:17;;;;;;;95.82;55.90;;;;;;;;;;5053762;28;20025;-51
2024/01/16 10:21:43;;;;;;;95.43;56.45;;;;;;;;;;5053631;28;20502;-50
2024/01/16 10:24:13;;;;;;;99.00;58.00;;;;;;;;;;5052325;28;20029;-47
2024/01/16 10:26:39;;;;;;;97.45;58.83;;;;;;;;;;5053799;28;20079;-48
2024/01/16 10:29:05;;;;;;;101.55;59.28;;;;;;;;;;5053773;28;20031;-50
2024/01/16 10:31:31;;;;;;;94.38;57.90;;;;;;;;;;5053638;28;20025;-47
2024/01/16 10:33:58;;;;;;;107.63;55.55;;;;;;;;;;5051967;28;20037;-49
2024/01/16 10:36:25;;;;;;;90.63;53.28;;;;;;;;;;5053487;28;20099;-50
2024/01/16 10:38:57;;;;;;;86.72;52.63;;;;;;;;;;5053579;28;20021;-47
2024/01/16 10:41:25;;;;;;;85.20;51.38;;;;;;;;;;4968699;22;2315627;-50
2024/01/16 10:44:07;;;;;;;70.50;46.00;;;;;;;;;;5014450;28;20046;-50
2024/01/16 10:46:33;;;;;;;64.68;41.03;;;;;;;;;;5014921;28;20036;-50
2024/01/16 10:49:01;;;;;;;60.57;39.73;;;;;;;;;;5015014;28;20030;-48
2024/01/16 10:51:27;;;;;;;;;;;;;;;;;;5015376;28;20026;-48
2024/01/16 10:53:58;;;;;;;53.97;32.72;;;;;;;;;;5014712;28;20272;-51
2024/01/16 10:56:25;;;;;;;54.53;33.13;;;;;;;;;;5014851;28;20022;-48
2024/01/16 10:59:11;;;;;;;59.28;37.88;;;;;;;;;;5014707;28;20022;-48
2024/01/16 11:01:39;;;;;;;62.50;37.25;;;;;;;;;;5014594;28;20082;-47
2024/01/16 11:04:05;;;;;;;;;;;;;;;;;;5014979;28;20076;-46
2024/01/16 11:06:31;;;;;;;57.50;36.83;;;;;;;;;;5013130;28;19909;-48
2024/01/16 11:08:58;;;;;;;62.30;39.10;;;;;;;;;;5014569;28;20396;-49
2024/01/16 11:11:25;;;;;;;59.85;37.75;;;;;;;;;;5013228;28;20036;-47
2024/01/16 11:13:51;;;;;;;51.38;34.53;;;;;;;;;;5014592;28;20079;-48
2024/01/16 11:16:19;;;;;;;52.45;33.15;;;;;;;;;;5028840;28;20030;-49
2024/01/16 11:18:45;;;;;;;46.58;31.55;;;;;;;;;;5033952;28;20149;-47
2024/01/16 11:21:12;;;;;;;52.92;35.67;;;;;;;;;;5030671;28;20017;-50
2024/01/16 11:23:39;;;;;;;56.72;34.95;;;;;;;;;;5024563;28;20038;-46
2024/01/16 11:26:24;;;;;;;49.33;33.40;;;;;;;;;;5014633;28;20492;-46
2024/01/16 11:28:50;;;;;;;50.40;31.23;;;;;;;;;;5015023;28;20025;-47
2024/01/16 11:31:36;;;;;;;48.42;29.80;;;;;;;;;;5012624;28;20501;-47
2024/01/16 11:34:04;;;;;;;39.47;27.50;;;;;;;;;;5011549;28;20172;-47
2024/01/16 11:36:43;;;;;;;43.33;30.27;;;;;;;;;;4992354;28;20021;-48
2024/01/16 11:39:11;;;;;;;37.83;26.35;;;;;;;;;;5010719;28;20032;-50
2024/01/16 11:41:57;;;;;;;39.10;27.27;;;;;;;;;;5011778;28;20064;-47
2024/01/16 11:44:42;;;;;;;47.80;31.33;;;;;;;;;;4996519;28;20370;-46
2024/01/16 11:47:08;;;;;;;43.85;30.52;;;;;;;;;;5028732;28;20470;-48
2024/01/16 11:49:35;;;;;;;50.25;32.25;;;;;;;;;;5024253;28;20503;-47
2024/01/16 11:52:02;;;;;;;;;;;;;;;;;;5024377;28;20117;-51
2024/01/16 11:54:28;;;;;;;51.10;33.08;;;;;;;;;;5011490;28;19920;-46
2024/01/16 11:57:14;;;;;;;41.72;28.80;;;;;;;;;;5016682;28;20117;-47
2024/01/16 11:59:51;;;;;;;42.80;29.42;;;;;;;;;;5028667;28;20018;-48
2024/01/16 12:02:27;;;;;;;41.45;26.40;;;;;;;;;;5025381;28;20033;-47
2024/01/16 12:04:58;;;;;;;43.60;25.77;;;;;;;;;;5012972;28;20388;-47
2024/01/16 12:07:24;;;;;;;38.25;25.83;;;;;;;;;;5026311;28;20373;-47
2024/01/16 12:09:51;;;;;;;44.08;26.33;;;;;;;;;;5028226;28;20026;-47
2024/01/16 12:12:18;;;;;;;37.92;25.27;;;;;;;;;;5018501;28;20034;-49
2024/01/16 12:14:53;;;;;;;39.25;26.13;;;;;;;;;;5026390;28;20116;-47
2024/01/16 12:17:20;;;;;;;34.85;24.60;;;;;;;;;;5028973;28;20026;-49
2024/01/16 12:19:46;;;;;;;38.78;23.98;;;;;;;;;;5023343;28;20118;-47
2024/01/16 12:22:21;;;;;;;34.13;24.25;;;;;;;;;;5010296;28;20389;-47
2024/01/16 12:24:47;;;;;;;38.83;25.67;;;;;;;;;;5011409;28;20605;-48
2024/01/16 12:27:15;;;;;;;42.17;25.85;;;;;;;;;;5011518;28;20026;-47
2024/01/16 12:29:42;;;;;;;38.40;26.00;;;;;;;;;;5011339;28;20026;-48
2024/01/16 12:32:12;;;;;;;40.58;28.55;;;;;;;;;;5026264;28;20421;-48
2024/01/16 12:34:50;;;;;;;34.85;25.08;;;;;;;;;;5029226;28;20032;-47
2024/01/16 12:37:17;;;;;;;39.55;25.73;;;;;;;;;;5029698;28;20033;-51
2024/01/16 12:39:43;;;;;;;38.25;25.73;;;;;;;;;;5011823;28;20029;-48
2024/01/16 12:42:10;;;;;;;34.63;25.23;;;;;;;;;;5023917;28;20034;-49
2024/01/16 12:44:36;;;;;;;42.45;24.15;;;;;;;;;;5011091;28;20025;-47
2024/01/16 12:47:02;;;;;;;35.80;24.88;;;;;;;;;;5027056;28;20044;-48
2024/01/16 12:49:29;;;;;;;34.90;24.80;;;;;;;;;;5012019;28;20026;-46
2024/01/16 12:52:14;;;;;;;35.00;25.33;;;;;;;;;;5011204;28;20496;-50
2024/01/16 12:54:40;;;;;;;36.33;24.45;;;;;;;;;;4990219;28;20276;-47
2024/01/16 12:57:06;;;;;;;38.05;24.20;;;;;;;;;;5011781;28;20159;-47
2024/01/16 12:59:33;;;;;;;34.78;24.42;;;;;;;;;;5027515;28;20048;-46
2024/01/16 13:02:00;;;;;;;37.95;25.75;;;;;;;;;;5017040;28;20036;-47
2024/01/16 13:04:26;;;;;;;35.35;24.77;;;;;;;;;;5012585;28;20161;-47
2024/01/16 13:07:01;;;;;;;39.25;26.02;;;;;;;;;;5021776;28;20034;-47
2024/01/16 13:09:27;;;;;;;33.30;23.27;;;;;;;;;;5015862;28;20095;-47
2024/01/16 13:11:58;;;;;;;36.67;22.85;;;;;;;;;;5023443;28;20024;-50
2024/01/16 13:14:24;;;;;;;38.88;25.00;;;;;;;;;;5014472;28;20523;-47
2024/01/16 13:16:51;;;;;;;31.33;23.88;;;;;;;;;;5029272;28;20747;-48
2024/01/16 13:19:21;;;;;;;34.75;23.52;;;;;;;;;;5028243;28;20022;-49
2024/01/16 13:21:47;;;;;;;34.88;24.05;;;;;;;;;;5011952;28;20037;-46
2024/01/16 13:24:13;;;;;;;32.50;24.27;;;;;;;;;;5010907;28;20034;-48
2024/01/16 13:26:40;;;;;;;34.17;24.08;;;;;;;;;;5012045;28;20030;-47
2024/01/16 13:29:06;;;;;;;32.53;24.30;;;;;;;;;;5011883;28;20032;-51
2024/01/16 13:31:33;;;;;;;35.80;24.33;;;;;;;;;;5010883;28;20053;-48
2024/01/16 13:33:59;;;;;;;39.47;24.75;;;;;;;;;;5011733;28;20030;-47
2024/01/16 13:36:26;;;;;;;36.47;23.85;;;;;;;;;;5010769;28;20030;-48
2024/01/16 13:38:53;;;;;;;30.02;20.85;;;;;;;;;;5011975;28;20032;-50
2024/01/16 13:41:19;;;;;;;30.25;21.33;;;;;;;;;;5011751;28;20034;-48
2024/01/16 13:43:46;;;;;;;54.78;34.47;;;;;;;;;;5010316;28;20030;-48
2024/01/16 13:46:13;;;;;;;35.15;24.33;;;;;;;;;;5011963;28;20021;-48
2024/01/16 13:48:40;;;;;;;38.95;25.23;;;;;;;;;;5011843;28;20033;-47
2024/01/16 13:51:08;;;;;;;28.33;21.55;;;;;;;;;;5011778;28;20030;-47
2024/01/16 13:53:34;;;;;;;30.13;21.70;;;;;;;;;;5011470;28;20538;-46
2024/01/16 13:56:01;;;;;;;32.17;23.02;;;;;;;;;;5010487;28;20117;-50
2024/01/16 13:58:27;;;;;;;30.05;22.13;;;;;;;;;;5010819;28;20105;-47
2024/01/16 14:00:53;;;;;;;29.45;21.95;;;;;;;;;;5012323;28;20049;-49
2024/01/16 14:03:19;;;;;;;31.10;21.30;;;;;;;;;;5018818;28;20033;-49
2024/01/16 14:05:46;;;;;;;34.08;22.67;;;;;;;;;;5026756;28;20116;-46
2024/01/16 14:08:13;;;;;;;32.58;22.55;;;;;;;;;;5016755;28;20033;-49
2024/01/16 14:10:39;;;;;;;39.07;23.70;;;;;;;;;;5020147;28;20430;-48
2024/01/16 14:13:06;;;;;;;31.98;22.38;;;;;;;;;;5030057;28;20282;-47
2024/01/16 14:15:32;;;;;;;31.50;23.42;;;;;;;;;;5021608;28;20029;-48
2024/01/16 14:17:59;;;;;;;31.93;22.57;;;;;;;;;;5017100;28;20033;-48